Time;durP1;ratioP1;P1;durP2;ratioP2;P2;SDS_P1;SDS_P2;PMS_P1;PMS_P2;Temp;Humidity;BMP_temperature;BMP_pressure;BME280_temperature;BME280_humidity;BME280_pressure;Samples;Min_cycle;Max_cycle;Signal;HPM_P1;HPM_P2
2022/08/15 00:00:31;;;;;;;;;;;22.80;73.00;;;;;;5075042;28;19965;-96
2022/08/15 00:02:57;;;;;;;;;;;22.80;72.80;;;;;;5074549;28;19976;-96
2022/08/15 00:05:23;;;;;;;;;;;22.80;73.00;;;;;;5074942;28;19935;-96
2022/08/15 00:07:49;;;;;;;;;;;22.80;73.80;;;;;;5073973;28;19940;-96
2022/08/15 00:10:17;;;;;;;;;;;22.80;73.50;;;;;;5073303;28;19946;-96
2022/08/15 00:12:43;;;;;;;;;;;22.80;73.60;;;;;;5075020;28;20417;-96
2022/08/15 00:15:11;;;;;;;;;;;22.80;74.10;;;;;;5074530;28;19938;-96
2022/08/15 00:17:37;;;;;;;;;;;22.70;73.50;;;;;;5075024;28;20354;-96
2022/08/15 00:20:03;;;;;;;;;;;22.30;74.20;;;;;;5074397;28;19940;-96
2022/08/15 00:22:29;;;;;;;;;;;22.30;74.40;;;;;;5074632;28;19949;-96
2022/08/15 00:24:54;;;;;;;;;;;22.30;74.10;;;;;;5073063;28;19947;-96
2022/08/15 00:27:21;;;;;;;;;;;22.30;74.30;;;;;;5074852;28;19946;-96
2022/08/15 00:29:46;;;;;;;;;;;22.30;74.50;;;;;;5074534;28;20450;-96
2022/08/15 00:32:16;;;;;;;;;;;22.30;74.50;;;;;;5072877;28;19966;-96
2022/08/15 00:34:42;;;;;;;;;;;22.30;74.30;;;;;;5074469;28;19936;-96
2022/08/15 00:37:08;;;;;;;;;;;22.20;75.00;;;;;;5074374;28;19956;-96
2022/08/15 00:39:33;;;;;;;;;;;22.20;77.00;;;;;;5074176;28;19938;-96
2022/08/15 00:42:00;;;;;;;;;;;22.20;77.10;;;;;;5074686;28;19943;-96
2022/08/15 00:44:32;;;;;;;;;;;22.10;77.30;;;;;;5074062;28;20040;-96
2022/08/15 00:46:59;;;;;;;;;;;22.00;76.50;;;;;;5072765;28;19948;-96
2022/08/15 00:49:27;;;;;;;;;;;22.10;77.00;;;;;;5074590;28;20378;-96
2022/08/15 00:51:52;;;;;;;;;;;22.20;75.90;;;;;;5073879;28;20424;-96
2022/08/15 00:54:30;;;;;;;;;;;22.30;75.70;;;;;;5074501;28;19945;-96
2022/08/15 00:56:59;;;;;;;;;;;22.30;75.30;;;;;;5073801;28;19936;-96
2022/08/15 00:59:27;;;;;;;;;;;22.30;74.50;;;;;;5073878;28;20302;-96
2022/08/15 01:01:54;;;;;;;;;;;22.20;74.50;;;;;;5074007;28;19976;-96
2022/08/15 01:04:20;;;;;;;;;;;22.20;74.80;;;;;;5074446;28;20036;-96
2022/08/15 01:06:46;;;;;;;;;;;22.10;74.90;;;;;;5073871;28;20046;-96
2022/08/15 01:09:12;;;;;;;;;;;22.20;76.20;;;;;;5074124;28;20391;-96
2022/08/15 01:11:41;;;;;;;;;;;22.20;76.30;;;;;;5073716;28;19945;-96
2022/08/15 01:14:07;;;;;;;;;;;22.10;75.80;;;;;;5074078;28;19943;-96
2022/08/15 01:16:33;;;;;;;;;;;22.00;75.80;;;;;;5074060;28;20010;-96
2022/08/15 01:18:59;;;;;;;;;;;22.00;76.20;;;;;;5076649;28;20373;-96
2022/08/15 01:21:41;;;;;;;;;;;22.10;75.90;;;;;;5078092;28;19946;-96
2022/08/15 01:24:26;;;;;;;;;;;22.10;76.30;;;;;;5078058;28;19947;-96
2022/08/15 01:26:51;;;;;;;;;;;22.10;75.40;;;;;;5077740;28;20001;-96
2022/08/15 01:29:17;;;;;;;;;;;22.30;75.40;;;;;;5077975;28;20393;-96
2022/08/15 01:31:44;;;;;;;;;;;22.30;74.80;;;;;;5077818;28;20393;-96
2022/08/15 01:34:09;;;;;;;;;;;22.30;74.70;;;;;;5077902;28;19987;-96
2022/08/15 01:36:35;;;;;;;;;;;22.40;77.00;;;;;;5077479;28;20397;-96
2022/08/15 01:39:12;;;;;;;;;;;22.30;76.70;;;;;;5078119;28;20017;-96
2022/08/15 01:41:38;;;;;;;;;;;22.30;76.20;;;;;;5076187;28;19952;-96
2022/08/15 01:44:08;;;;;;;;;;;22.20;76.00;;;;;;5077683;28;20036;-96
2022/08/15 01:46:36;;;;;;;;;;;22.10;76.20;;;;;;5077612;28;19947;-96
2022/08/15 01:49:06;;;;;;;;;;;22.20;76.30;;;;;;5077871;28;19938;-96
2022/08/15 01:51:31;;;;;;;;;;;22.20;76.70;;;;;;5077212;28;20023;-96
2022/08/15 01:54:01;;;;;;;;;;;22.20;76.40;;;;;;5077304;28;20034;-96
2022/08/15 01:56:34;;;;;;;;;;;22.20;76.10;;;;;;5077347;28;19936;-96
2022/08/15 01:59:02;;;;;;;;;;;22.30;75.40;;;;;;5077082;28;19939;-96
2022/08/15 02:01:36;;;;;;;;;;;22.40;75.00;;;;;;5077065;28;20442;-96
2022/08/15 02:04:02;;;;;;;;;;;22.50;74.60;;;;;;5077576;28;19946;-96
2022/08/15 02:06:29;;;;;;;;;;;22.50;76.00;;;;;;5077241;28;19986;-96
2022/08/15 02:08:56;;;;;;;;;;;22.40;75.90;;;;;;5077207;28;19943;-96
2022/08/15 02:11:24;;;;;;;;;;;22.40;75.30;;;;;;5076864;28;19937;-96
2022/08/15 02:13:54;;;;;;;;;;;22.50;73.70;;;;;;5077293;28;19960;-96
2022/08/15 02:16:21;;;;;;;;;;;22.50;73.10;;;;;;5077094;28;19945;-96
2022/08/15 02:18:47;;;;;;;;;;;22.60;72.70;;;;;;5076914;28;19988;-96
2022/08/15 02:21:12;;;;;;;;;;;22.60;72.10;;;;;;5076972;28;19948;-96
2022/08/15 02:23:38;;;;;;;;;;;22.70;72.00;;;;;;5076651;28;19981;-96
2022/08/15 02:26:04;;;;;;;;;;;22.70;71.60;;;;;;5077173;28;20455;-96
2022/08/15 02:28:30;;;;;;;;;;;22.80;71.40;;;;;;5076577;28;19939;-96
2022/08/15 02:30:56;;;;;;;;;;;22.80;71.40;;;;;;5076047;28;20353;-96
2022/08/15 02:33:22;;;;;;;;;;;22.80;71.30;;;;;;5076709;28;20354;-96
2022/08/15 02:35:48;;;;;;;;;;;22.80;71.30;;;;;;5076656;28;19993;-96
2022/08/15 02:38:14;;;;;;;;;;;22.80;71.10;;;;;;5076674;28;19950;-96
2022/08/15 02:40:40;;;;;;;;;;;22.80;70.80;;;;;;5076617;28;20295;-96
2022/08/15 02:43:07;;;;;;;;;;;22.80;70.60;;;;;;5076876;28;19936;-96
2022/08/15 02:45:37;;;;;;;;;;;22.80;70.50;;;;;;5076534;28;19943;-96
2022/08/15 02:48:06;;;;;;;;;;;22.80;70.40;;;;;;5076211;28;19983;-96
2022/08/15 02:50:33;;;;;;;;;;;22.80;70.60;;;;;;5076326;28;19962;-96
2022/08/15 02:53:00;;;;;;;;;;;22.80;70.70;;;;;;5076349;28;20428;-96
2022/08/15 02:55:26;;;;;;;;;;;22.80;70.70;;;;;;5076115;28;19943;-96
2022/08/15 02:57:52;;;;;;;;;;;22.80;70.20;;;;;;5076296;28;19935;-96
2022/08/15 03:00:17;;;;;;;;;;;22.80;70.00;;;;;;5076313;28;20397;-96
2022/08/15 03:02:54;;;;;;;;;;;22.80;69.90;;;;;;5075720;28;20321;-96
2022/08/15 03:05:21;;;;;;;;;;;22.90;69.70;;;;;;5076473;28;19941;-96
2022/08/15 03:07:46;;;;;;;;;;;22.90;69.50;;;;;;5074529;28;20349;-96
2022/08/15 03:10:12;;;;;;;;;;;22.90;69.70;;;;;;5076417;28;19943;-96
2022/08/15 03:12:53;;;;;;;;;;;22.90;69.40;;;;;;5076040;28;20016;-96
2022/08/15 03:15:32;;;;;;;;;;;22.80;69.50;;;;;;5074420;28;19970;-96
2022/08/15 03:17:58;;;;;;;;;;;22.80;69.80;;;;;;5076132;28;20019;-96
2022/08/15 03:20:24;;;;;;;;;;;22.80;70.00;;;;;;5075724;28;20052;-96
2022/08/15 03:22:52;;;;;;;;;;;22.80;70.10;;;;;;5075846;28;20427;-96
2022/08/15 03:25:17;;;;;;;;;;;22.80;70.20;;;;;;5075530;28;19938;-96
2022/08/15 03:27:44;;;;;;;;;;;22.80;70.30;;;;;;5075758;28;19981;-96
2022/08/15 03:30:11;;;;;;;;;;;22.80;70.00;;;;;;5075726;28;20424;-96
2022/08/15 03:32:44;;;;;;;;;;;22.90;69.90;;;;;;5075226;28;19983;-96
2022/08/15 03:35:09;;;;;;;;;;;22.80;70.10;;;;;;5075879;28;19938;-96
2022/08/15 03:37:36;;;;;;;;;;;22.90;70.10;;;;;;5073893;28;20059;-96
2022/08/15 03:40:03;;;;;;;;;;;22.80;70.60;;;;;;5075524;28;19949;-96
2022/08/15 03:42:29;;;;;;;;;;;22.80;70.80;;;;;;5074393;28;20002;-96
2022/08/15 03:44:54;;;;;;;;;;;22.80;71.20;;;;;;5075381;28;20394;-96
2022/08/15 03:47:21;;;;;;;;;;;22.80;71.30;;;;;;5075048;28;19937;-96
2022/08/15 03:49:47;;;;;;;;;;;22.80;72.20;;;;;;5073700;28;20047;-96
2022/08/15 03:52:13;;;;;;;;;;;22.80;72.00;;;;;;5075457;28;20061;-96
2022/08/15 03:54:39;;;;;;;;;;;22.80;72.10;;;;;;5075212;28;20015;-96
2022/08/15 03:57:05;;;;;;;;;;;22.80;71.10;;;;;;5073490;28;20001;-96
2022/08/15 03:59:30;;;;;;;;;;;22.80;71.20;;;;;;5074808;28;19948;-96
2022/08/15 04:01:56;;;;;;;;;;;22.70;71.20;;;;;;5073303;28;19983;-96
2022/08/15 04:04:22;;;;;;;;;;;22.70;71.60;;;;;;5074079;28;20349;-96
2022/08/15 04:06:47;;;;;;;;;;;22.70;71.80;;;;;;5074951;28;19939;-96
2022/08/15 04:09:13;;;;;;;;;;;22.70;72.10;;;;;;5075150;28;20031;-96
2022/08/15 04:11:38;;;;;;;;;;;22.70;71.90;;;;;;5074771;28;19986;-96
2022/08/15 04:14:08;;;;;;;;;;;22.70;72.00;;;;;;5074832;28;19949;-96
2022/08/15 04:16:34;;;;;;;;;;;22.70;72.20;;;;;;5074818;28;19940;-96
2022/08/15 04:19:00;;;;;;;;;;;22.70;72.30;;;;;;5075022;28;20007;-96
2022/08/15 04:21:25;;;;;;;;;;;22.80;72.40;;;;;;5074719;28;20032;-96
2022/08/15 04:23:51;;;;;;;;;;;22.80;72.40;;;;;;5074962;28;19952;-96
2022/08/15 04:26:17;;;;;;;;;;;22.80;72.20;;;;;;5074335;28;19949;-96
2022/08/15 04:28:43;;;;;;;;;;;22.80;72.40;;;;;;5074876;28;19971;-96
2022/08/15 04:31:14;;;;;;;;;;;22.90;72.30;;;;;;5074425;28;19943;-96
2022/08/15 04:33:40;;;;;;;;;;;22.80;72.50;;;;;;5074432;28;20005;-96
2022/08/15 04:36:10;;;;;;;;;;;22.90;72.80;;;;;;5074098;28;19951;-96
2022/08/15 04:38:40;;;;;;;;;;;22.80;72.80;;;;;;5074737;28;19950;-96
2022/08/15 04:41:06;;;;;;;;;;;22.80;72.90;;;;;;5074091;28;19934;-96
2022/08/15 04:43:33;;;;;;;;;;;22.80;73.00;;;;;;5074379;28;20398;-96
2022/08/15 04:45:59;;;;;;;;;;;22.80;73.10;;;;;;5074025;28;19947;-96
2022/08/15 04:48:25;;;;;;;;;;;22.80;73.10;;;;;;5074361;28;19951;-96
2022/08/15 04:50:52;;;;;;;;;;;22.80;73.10;;;;;;5074014;28;19937;-96
2022/08/15 04:53:18;;;;;;;;;;;22.80;73.00;;;;;;5074162;28;20050;-96
2022/08/15 04:55:44;;;;;;;;;;;22.80;72.70;;;;;;5072646;28;20441;-96
2022/08/15 04:58:10;;;;;;;;;;;22.80;72.50;;;;;;5073903;28;19944;-96
2022/08/15 05:00:40;;;;;;;;;;;22.90;72.00;;;;;;5074232;28;19948;-96
2022/08/15 05:03:19;;;;;;;;;;;22.90;71.70;;;;;;5061925;22;19991;-96
2022/08/15 05:05:49;;;;;;;;;;;22.90;71.40;;;;;;5052985;28;21366;-96
2022/08/15 05:08:15;;;;;;;;;;;22.90;71.40;;;;;;5057280;28;19967;-95
2022/08/15 05:10:41;;;;;;;;;;;22.90;71.40;;;;;;5056835;28;19992;-95
2022/08/15 05:13:08;;;;;;;;;;;23.00;71.20;;;;;;5056880;28;19963;-95
2022/08/15 05:15:33;;;;;;;;;;;23.00;70.90;;;;;;5056562;28;19949;-96
2022/08/15 05:17:59;;;;;;;;;;;23.00;71.00;;;;;;5054261;28;19939;-96
2022/08/15 05:20:24;;;;;;;;;;;23.00;70.70;;;;;;5053960;28;19941;-96
2022/08/15 05:22:52;;;;;;;;;;;23.00;70.60;;;;;;5053844;28;19943;-96
2022/08/15 05:25:18;;;;;;;;;;;23.10;70.50;;;;;;5054109;28;19937;-96
2022/08/15 05:27:43;;;;;;;;;;;23.10;70.50;;;;;;5053603;28;19943;-96
2022/08/15 05:30:09;;;;;;;;;;;23.10;70.30;;;;;;5054144;28;19937;-96
2022/08/15 05:32:35;;;;;;;;;;;23.10;70.20;;;;;;5053547;28;19964;-96
2022/08/15 05:35:00;;;;;;;;;;;23.10;70.20;;;;;;5053569;28;20039;-96
2022/08/15 05:37:27;;;;;;;;;;;23.10;70.10;;;;;;5053962;28;20003;-96
2022/08/15 05:39:53;;;;;;;;;;;23.10;70.50;;;;;;5035563;28;20394;-96
2022/08/15 05:42:47;;;;;;;;;;;23.10;70.40;;;;;;5036260;28;20389;-96
2022/08/15 05:45:19;;;;;;;;;;;23.10;70.50;;;;;;5048427;28;19949;-96
2022/08/15 05:47:57;;;;;;;;;;;23.10;70.60;;;;;;5053694;28;19949;-96
2022/08/15 05:50:25;;;;;;;;;;;23.10;70.50;;;;;;5053672;28;19942;-96
2022/08/15 05:53:05;;;;;;;;;;;23.20;70.40;;;;;;5053587;28;19960;-96
2022/08/15 05:55:40;;;;;;;;;;;23.20;70.40;;;;;;5053342;28;19951;-96
2022/08/15 05:58:22;;;;;;;;;;;23.30;70.20;;;;;;5053249;28;19971;-96
2022/08/15 06:00:50;;;;;;;;;;;23.30;70.00;;;;;;5053642;28;19996;-96
2022/08/15 06:03:20;;;;;;;;;;;23.30;70.10;;;;;;5053788;28;19950;-96
2022/08/15 06:05:51;;;;;;;;;;;23.30;69.90;;;;;;5054923;28;19952;-96
2022/08/15 06:08:20;;;;;;;;;;;23.40;69.80;;;;;;5057514;28;19942;-96
2022/08/15 06:10:49;;;;;;;;;;;23.50;69.30;;;;;;5057022;28;19974;-96
2022/08/15 06:13:16;;;;;;;;;;;23.50;68.90;;;;;;5057051;28;19961;-96
2022/08/15 06:15:46;;;;;;;;;;;23.50;68.70;;;;;;5056763;28;19947;-96
2022/08/15 06:18:13;;;;;;;;;;;23.60;68.70;;;;;;5056919;28;19940;-96
2022/08/15 06:20:53;;;;;;;;;;;23.70;68.60;;;;;;5057026;28;20036;-96
2022/08/15 06:23:25;;;;;;;;;;;23.70;68.60;;;;;;5056700;28;20396;-96
2022/08/15 06:25:54;;;;;;;;;;;23.80;68.30;;;;;;5057174;28;19985;-96
2022/08/15 06:28:31;;;;;;;;;;;23.80;68.40;;;;;;5056612;28;19941;-96
2022/08/15 06:30:57;;;;;;;;;;;23.90;68.00;;;;;;5056778;28;20040;-96
2022/08/15 06:33:28;;;;;;;;;;;24.00;67.40;;;;;;5056688;28;20043;-96
2022/08/15 06:35:59;;;;;;;;;;;24.10;67.20;;;;;;5056644;28;19974;-96
2022/08/15 06:38:24;;;;;;;;;;;24.10;66.90;;;;;;5056375;28;20405;-96
2022/08/15 06:40:53;;;;;;;;;;;24.20;67.20;;;;;;5056968;28;19936;-96
2022/08/15 06:43:19;;;;;;;;;;;24.30;66.90;;;;;;5056381;28;19943;-96
2022/08/15 06:45:46;;;;;;;;;;;24.30;66.80;;;;;;5056570;28;19991;-96
2022/08/15 06:48:14;;;;;;;;;;;24.40;66.70;;;;;;5056236;28;19953;-96
2022/08/15 06:50:42;;;;;;;;;;;24.40;66.10;;;;;;5056775;28;20365;-96
2022/08/15 06:53:14;;;;;;;;;;;24.50;66.40;;;;;;5056059;28;19960;-96
2022/08/15 06:55:43;;;;;;;;;;;24.50;66.50;;;;;;5038164;28;20037;-96
2022/08/15 06:58:14;;;;;;;;;;;24.60;66.50;;;;;;5056001;28;19941;-96
2022/08/15 07:00:43;;;;;;;;;;;24.60;66.60;;;;;;5038141;28;19940;-96
2022/08/15 07:03:34;;;;;;;;;;;24.70;66.80;;;;;;5055727;28;20447;-96
2022/08/15 07:06:01;;;;;;;;;;;24.70;66.30;;;;;;5054624;28;19982;-96
2022/08/15 07:08:36;;;;;;;;;;;24.80;66.10;;;;;;5056452;28;20377;-96
2022/08/15 07:11:08;;;;;;;;;;;24.80;65.30;;;;;;5055881;28;19997;-96
2022/08/15 07:13:44;;;;;;;;;;;24.90;65.10;;;;;;5055976;28;19969;-96
2022/08/15 07:16:18;;;;;;;;;;;24.90;65.00;;;;;;5055481;28;19936;-96
2022/08/15 07:18:45;;;;;;;;;;;25.00;64.80;;;;;;5037800;28;20011;-96
2022/08/15 07:21:16;;;;;;;;;;;25.10;64.70;;;;;;5055888;28;19940;-96
2022/08/15 07:24:03;;;;;;;;;;;25.10;64.40;;;;;;5055841;28;20012;-96
2022/08/15 07:26:29;;;;;;;;;;;25.20;64.60;;;;;;5056090;28;20042;-96
2022/08/15 07:28:59;;;;;;;;;;;25.20;64.40;;;;;;5055408;28;19942;-96
2022/08/15 07:31:33;;;;;;;;;;;25.20;63.90;;;;;;5055985;28;19936;-96
2022/08/15 07:34:29;;;;;;;;;;;25.20;64.20;;;;;;5055278;28;19960;-96
2022/08/15 07:37:03;;;;;;;;;;;25.20;64.30;;;;;;5050861;28;19982;-96
2022/08/15 07:39:39;;;;;;;;;;;25.20;64.60;;;;;;5037362;28;19954;-96
2022/08/15 07:42:19;;;;;;;;;;;25.20;64.40;;;;;;5055490;28;19980;-96
2022/08/15 07:44:51;;;;;;;;;;;25.20;64.20;;;;;;5055154;28;19943;-96
2022/08/15 07:47:20;;;;;;;;;;;25.40;64.30;;;;;;5055390;28;19940;-96
2022/08/15 07:49:56;;;;;;;;;;;25.60;63.50;;;;;;5055023;28;19944;-96
2022/08/15 07:52:23;;;;;;;;;;;25.70;63.40;;;;;;5055234;28;19984;-96
2022/08/15 07:54:54;;;;;;;;;;;25.80;62.70;;;;;;5054965;28;19942;-96
2022/08/15 07:57:33;;;;;;;;;;;25.80;62.80;;;;;;5055003;28;19953;-96
2022/08/15 08:00:15;;;;;;;;;;;25.80;63.00;;;;;;5055443;28;19999;-96
2022/08/15 08:02:50;;;;;;;;;;;25.80;63.40;;;;;;5054682;28;19977;-96
2022/08/15 08:05:15;;;;;;;;;;;25.80;63.40;;;;;;5055037;28;19939;-96
2022/08/15 08:07:43;;;;;;;;;;;25.90;63.60;;;;;;5054669;28;19943;-96
2022/08/15 08:10:12;;;;;;;;;;;25.80;64.20;;;;;;5054943;28;19939;-96
2022/08/15 08:12:40;;;;;;;;;;;25.80;64.60;;;;;;5054505;28;19959;-96
2022/08/15 08:15:06;;;;;;;;;;;25.90;64.20;;;;;;5054847;28;19936;-96
2022/08/15 08:17:36;;;;;;;;;;;26.00;65.20;;;;;;5054840;28;19946;-96
2022/08/15 08:20:32;;;;;;;;;;;26.00;64.50;;;;;;5055069;28;20022;-96
2022/08/15 08:23:02;;;;;;;;;;;26.10;64.80;;;;;;5035245;28;20030;-96
2022/08/15 08:25:31;;;;;;;;;;;26.20;64.90;;;;;;5036533;28;20062;-96
2022/08/15 08:28:00;;;;;;;;;;;26.20;66.00;;;;;;5054067;28;19950;-96
2022/08/15 08:30:30;;;;;;;;;;;26.30;65.80;;;;;;5036452;28;19947;-96
2022/08/15 08:33:02;;;;;;;;;;;26.40;65.30;;;;;;5036927;28;19964;-96
2022/08/15 08:35:36;;;;;;;;;;;26.40;65.40;;;;;;5054193;28;19991;-96
2022/08/15 08:38:17;;;;;;;;;;;26.50;66.20;;;;;;5054504;28;19936;-96
2022/08/15 08:43:42;;;;;;;;;;;26.60;64.80;;;;;;5054126;28;19999;-96
2022/08/15 08:46:37;;;;;;;;;;;26.70;65.70;;;;;;5054383;28;19938;-96
2022/08/15 08:49:14;;;;;;;;;;;26.70;65.80;;;;;;5034831;28;20540;-96
2022/08/15 08:52:07;;;;;;;;;;;26.90;65.10;;;;;;5054266;28;19935;-96
2022/08/15 08:54:41;;;;;;;;;;;27.00;64.70;;;;;;5053940;28;19944;-96
2022/08/15 08:57:12;;;;;;;;;;;27.20;64.90;;;;;;5054152;28;20000;-96
2022/08/15 08:59:51;;;;;;;;;;;27.20;66.00;;;;;;5054453;28;19941;-96
2022/08/15 09:02:28;;;;;;;;;;;27.20;65.20;;;;;;5053786;28;19975;-96
2022/08/15 09:04:57;;;;;;;;;;;27.40;65.60;;;;;;5054106;28;19947;-96
2022/08/15 09:07:26;;;;;;;;;;;27.50;65.10;;;;;;5053826;28;19938;-96
2022/08/15 09:09:52;;;;;;;;;;;27.60;65.60;;;;;;5054062;28;20021;-96
2022/08/15 09:15:17;;;;;;;;;;;28.00;64.40;;;;;;5054317;28;19943;-96
2022/08/15 09:17:46;;;;;;;;;;;28.30;62.10;;;;;;5053990;28;19942;-96
2022/08/15 09:20:16;;;;;;;;;;;28.50;60.70;;;;;;5053709;28;19946;-96
2022/08/15 09:22:42;;;;;;;;;;;28.60;60.20;;;;;;5053929;28;19932;-96
2022/08/15 09:25:08;;;;;;;;;;;28.50;61.40;;;;;;5053893;28;20399;-96
2022/08/15 09:27:46;;;;;;;;;;;28.40;60.30;;;;;;5054143;28;20384;-96
2022/08/15 09:30:12;;;;;;;;;;;28.40;60.20;;;;;;5035682;28;20412;-96
2022/08/15 09:32:56;;;;;;;;;;;28.30;59.80;;;;;;5053784;28;19962;-96
2022/08/15 09:35:34;;;;;;;;;;;28.20;60.70;;;;;;5053766;28;19962;-96
2022/08/15 09:38:18;;;;;;;;;;;28.20;60.40;;;;;;5053807;28;20027;-96
2022/08/15 09:40:43;;;;;;;;;;;28.20;61.00;;;;;;5057222;28;19948;-96
2022/08/15 09:43:09;;;;;;;;;;;28.00;62.00;;;;;;5058053;28;20302;-96
2022/08/15 09:45:55;;;;;;;;;;;28.00;62.40;;;;;;5057379;28;19938;-96
2022/08/15 09:48:21;;;;;;;;;;;28.20;61.50;;;;;;5029235;28;19943;-96
2022/08/15 09:50:57;;;;;;;;;;;28.20;60.50;;;;;;5057601;28;19993;-96
2022/08/15 09:53:33;;;;;;;;;;;28.10;62.60;;;;;;5057167;28;19963;-96
2022/08/15 09:56:03;;;;;;;;;;;28.00;62.20;;;;;;5057614;28;19953;-96
2022/08/15 09:58:31;;;;;;;;;;;28.00;61.20;;;;;;5057077;28;20345;-96
2022/08/15 10:01:08;;;;;;;;;;;28.20;61.40;;;;;;5057142;28;19937;-96
2022/08/15 10:03:43;;;;;;;;;;;28.10;60.00;;;;;;5057328;28;19946;-96
2022/08/15 10:06:09;;;;;;;;;;;28.10;59.80;;;;;;5057319;28;19950;-96
2022/08/15 10:09:02;;;;;;;;;;;28.20;59.10;;;;;;5057260;28;19939;-96
2022/08/15 10:11:35;;;;;;;;;;;28.30;59.30;;;;;;5057068;28;19953;-96
2022/08/15 10:14:06;;;;;;;;;;;28.30;59.50;;;;;;5057382;28;20008;-96
2022/08/15 10:16:41;;;;;;;;;;;28.20;59.20;;;;;;5056828;28;20382;-96
2022/08/15 10:19:09;;;;;;;;;;;28.30;58.90;;;;;;5057119;28;19935;-96
2022/08/15 10:21:39;;;;;;;;;;;28.40;59.60;;;;;;5057045;28;20064;-96
2022/08/15 10:24:25;;;;;;;;;;;28.50;59.30;;;;;;5057034;28;19966;-96
2022/08/15 10:27:03;;;;;;;;;;;28.60;59.80;;;;;;5056675;28;20069;-96
2022/08/15 10:29:32;;;;;;;;;;;28.70;59.60;;;;;;5057189;28;19941;-96
2022/08/15 10:31:59;;;;;;;;;;;28.80;57.20;;;;;;5056765;28;20381;-96
2022/08/15 10:34:37;;;;;;;;;;;28.80;57.00;;;;;;5056812;28;19943;-96
2022/08/15 10:37:15;;;;;;;;;;;28.80;56.30;;;;;;5056681;28;19964;-96
2022/08/15 10:39:56;;;;;;;;;;;28.80;56.50;;;;;;5057201;28;20405;-96
2022/08/15 10:42:33;;;;;;;;;;;29.00;59.20;;;;;;5056386;28;19940;-96
2022/08/15 10:45:15;;;;;;;;;;;29.20;56.50;;;;;;5056698;28;20502;-96
2022/08/15 10:47:47;;;;;;;;;;;29.40;56.40;;;;;;5056315;28;19934;-96
2022/08/15 10:50:19;;;;;;;;;;;29.60;55.20;;;;;;5056531;28;20397;-96
2022/08/15 10:52:45;;;;;;;;;;;29.80;53.30;;;;;;5055680;28;19983;-96
2022/08/15 10:55:23;;;;;;;;;;;30.10;53.60;;;;;;5056382;28;20293;-96
2022/08/15 10:57:51;;;;;;;;;;;30.20;52.60;;;;;;5055944;28;20414;-96
2022/08/15 11:00:37;;;;;;;;;;;30.30;52.90;;;;;;5056378;28;19943;-96
2022/08/15 11:03:05;;;;;;;;;;;30.50;51.20;;;;;;5055834;28;19979;-96
2022/08/15 11:05:30;;;;;;;;;;;30.80;53.60;;;;;;5056235;28;19941;-96
2022/08/15 11:07:56;;;;;;;;;;;30.80;50.20;;;;;;5055849;28;19942;-96
2022/08/15 11:10:23;;;;;;;;;;;31.00;49.00;;;;;;5056106;28;19939;-96
2022/08/15 11:12:54;;;;;;;;;;;31.00;49.30;;;;;;5055748;28;19970;-96
2022/08/15 11:15:54;;;;;;;;;;;31.30;49.30;;;;;;5056024;28;19935;-96
2022/08/15 11:18:27;;;;;;;;;;;31.70;47.10;;;;;;5043921;28;19966;-96
2022/08/15 11:20:55;;;;;;;;;;;31.70;46.10;;;;;;5056226;28;20065;-96
2022/08/15 11:23:39;;;;;;;;;;;31.80;48.70;;;;;;5055868;28;19944;-96
2022/08/15 11:26:06;;;;;;;;;;;31.80;46.40;;;;;;5055831;28;19947;-96
2022/08/15 11:28:32;;;;;;;;;;;32.00;45.90;;;;;;5055501;28;19944;-96
2022/08/15 11:31:03;;;;;;;;;;;31.80;45.90;;;;;;5055748;28;19950;-96
2022/08/15 11:33:40;;;;;;;;;;;31.80;46.40;;;;;;5055338;28;19959;-96
2022/08/15 11:36:12;;;;;;;;;;;32.00;45.60;;;;;;5055588;28;20049;-96
2022/08/15 11:38:41;;;;;;;;;;;32.20;45.40;;;;;;5055287;28;19936;-96
2022/08/15 11:41:06;;;;;;;;;;;32.20;44.10;;;;;;5055512;28;19989;-96
2022/08/15 11:43:32;;;;;;;;;;;31.90;44.50;;;;;;5055161;28;19944;-96
2022/08/15 11:45:58;;;;;;;;;;;31.90;43.80;;;;;;5037290;28;20011;-96
2022/08/15 11:48:29;;;;;;;;;;;31.80;44.30;;;;;;5055136;28;19959;-96
2022/08/15 11:50:59;;;;;;;;;;;31.60;43.40;;;;;;5037227;28;20026;-96
2022/08/15 11:53:30;;;;;;;;;;;31.60;44.00;;;;;;5037063;28;20385;-96
2022/08/15 11:55:55;;;;;;;;;;;31.50;44.80;;;;;;5055242;28;19975;-96
2022/08/15 11:58:28;;;;;;;;;;;31.30;45.30;;;;;;5036915;28;19984;-96
2022/08/15 12:00:57;;;;;;;;;;;31.10;46.30;;;;;;5055021;28;20057;-96
2022/08/15 12:03:31;;;;;;;;;;;30.90;46.50;;;;;;5054169;28;20032;-96
2022/08/15 12:05:58;;;;;;;;;;;30.90;46.30;;;;;;5054779;28;19940;-96
2022/08/15 12:08:28;;;;;;;;;;;30.80;45.60;;;;;;5055300;28;19993;-96
2022/08/15 12:11:01;;;;;;;;;;;31.00;46.50;;;;;;5054648;28;20027;-96
2022/08/15 12:13:27;;;;;;;;;;;31.20;46.40;;;;;;5054818;28;20007;-96
2022/08/15 12:15:52;;;;;;;;;;;31.40;44.50;;;;;;5054885;28;20023;-96
2022/08/15 12:18:18;;;;;;;;;;;31.70;44.40;;;;;;5054817;28;19938;-96
2022/08/15 12:20:47;;;;;;;;;;;32.10;43.60;;;;;;5054518;28;19945;-96
2022/08/15 12:23:25;;;;;;;;;;;32.60;44.70;;;;;;5054558;28;19940;-96
2022/08/15 12:25:56;;;;;;;;;;;32.90;42.60;;;;;;5054994;28;20389;-96
2022/08/15 12:28:23;;;;;;;;;;;33.40;43.20;;;;;;5036563;28;19961;-96
2022/08/15 12:30:48;;;;;;;;;;;33.70;39.90;;;;;;5054636;28;19942;-96
2022/08/15 12:33:14;;;;;;;;;;;33.50;39.20;;;;;;5054815;28;19968;-96
2022/08/15 12:35:41;;;;;;;;;;;32.80;41.00;;;;;;5054155;28;20463;-96
2022/08/15 12:38:07;;;;;;;;;;;32.70;41.20;;;;;;5054304;28;19949;-96
2022/08/15 12:40:33;;;;;;;;;;;32.90;40.70;;;;;;5054489;28;19979;-96
2022/08/15 12:42:59;;;;;;;;;;;32.70;41.50;;;;;;5054233;28;20418;-96
2022/08/15 12:45:25;;;;;;;;;;;32.10;40.50;;;;;;5054355;28;19978;-96
2022/08/15 12:47:50;;;;;;;;;;;31.80;40.80;;;;;;5054093;28;19978;-96
2022/08/15 12:50:16;;;;;;;;;;;31.90;41.50;;;;;;5054222;28;19936;-96
2022/08/15 12:52:42;;;;;;;;;;;32.20;41.00;;;;;;5054199;28;20413;-96
2022/08/15 12:55:09;;;;;;;;;;;32.60;39.90;;;;;;5053961;28;20460;-96
2022/08/15 12:57:35;;;;;;;;;;;32.50;39.40;;;;;;5053919;28;20412;-96
2022/08/15 13:00:01;;;;;;;;;;;32.50;40.90;;;;;;5054048;28;19946;-96
2022/08/15 13:02:26;;;;;;;;;;;32.80;40.30;;;;;;5075567;22;20024;-96
2022/08/15 13:04:55;;;;;;;;;;;33.20;39.40;;;;;;5073928;28;19949;-96
2022/08/15 13:07:21;;;;;;;;;;;33.60;38.70;;;;;;5074164;28;19943;-96
2022/08/15 13:09:48;;;;;;;;;;;34.20;37.70;;;;;;5089384;28;20421;-96
2022/08/15 13:12:14;;;;;;;;;;;34.50;36.70;;;;;;5074390;28;19949;-96
2022/08/15 13:14:40;;;;;;;;;;;34.70;36.20;;;;;;5072255;28;19943;-96
2022/08/15 13:17:06;;;;;;;;;;;34.20;37.20;;;;;;5074125;28;19946;-96
2022/08/15 13:23:34;;;;;;;;;;;34.60;37.00;;;;;;5073859;28;19943;-96
2022/08/15 13:25:03;;;;;;;;;;;35.20;35.20;;;;;;5074038;28;20415;-96
2022/08/15 13:27:30;;;;;;;;;;;34.90;35.30;;;;;;5074307;28;19934;-96
2022/08/15 13:29:56;;;;;;;;;;;35.20;35.00;;;;;;5073655;28;20025;-96
2022/08/15 13:32:21;;;;;;;;;;;35.60;34.90;;;;;;5074253;28;20095;-96
2022/08/15 13:34:47;;;;;;;;;;;36.50;33.40;;;;;;5074504;28;19949;-96
2022/08/15 13:37:13;;;;;;;;;;;37.40;32.00;;;;;;5072548;28;20001;-96
2022/08/15 13:39:38;;;;;;;;;;;37.00;32.70;;;;;;5072285;28;19950;-96
2022/08/15 13:42:04;;;;;;;;;;;36.90;32.50;;;;;;5074136;28;19942;-96
2022/08/15 13:44:31;;;;;;;;;;;36.90;32.70;;;;;;5073680;28;20311;-96
2022/08/15 13:47:00;;;;;;;;;;;37.40;32.00;;;;;;5074323;28;19945;-96
2022/08/15 13:49:26;;;;;;;;;;;37.70;30.80;;;;;;5073659;28;19945;-96
2022/08/15 13:51:53;;;;;;;;;;;37.60;32.50;;;;;;5073760;28;19939;-96
2022/08/15 13:54:22;;;;;;;;;;;37.70;32.30;;;;;;5073791;28;19955;-96
2022/08/15 13:56:47;;;;;;;;;;;38.10;30.80;;;;;;5073602;28;19945;-96
2022/08/15 13:59:13;;;;;;;;;;;38.70;30.30;;;;;;5074676;28;19936;-96
2022/08/15 14:01:40;;;;;;;;;;;39.90;29.50;;;;;;5075226;28;20453;-96
2022/08/15 14:04:07;;;;;;;;;;;40.50;28.20;;;;;;5077351;28;19954;-96
2022/08/15 14:06:34;;;;;;;;;;;41.40;27.20;;;;;;5075632;28;19950;-96
2022/08/15 14:08:59;;;;;;;;;;;40.80;26.90;;;;;;5074699;28;19977;-96
2022/08/15 14:11:25;;;;;;;;;;;40.50;27.50;;;;;;5074601;28;19936;-96
2022/08/15 14:13:51;;;;;;;;;;;39.90;27.50;;;;;;5073892;28;20462;-96
2022/08/15 14:16:18;;;;;;;;;;;39.20;29.30;;;;;;5073389;28;20453;-96
2022/08/15 14:18:44;;;;;;;;;;;39.20;28.30;;;;;;5073475;28;19940;-96
2022/08/15 14:21:10;;;;;;;;;;;38.00;29.10;;;;;;5073223;28;20310;-96
2022/08/15 14:23:36;;;;;;;;;;;38.00;29.20;;;;;;5073459;28;19942;-96
2022/08/15 14:26:03;;;;;;;;;;;38.10;29.20;;;;;;5073947;28;19946;-96
2022/08/15 14:28:29;;;;;;;;;;;39.10;28.40;;;;;;5077080;28;19943;-96
2022/08/15 14:30:55;;;;;;;;;;;39.50;28.20;;;;;;5077049;28;20392;-96
2022/08/15 14:33:21;;;;;;;;;;;39.40;28.70;;;;;;5076916;28;19961;-96
2022/08/15 14:35:46;;;;;;;;;;;40.30;26.90;;;;;;5076563;28;20548;-96
2022/08/15 14:38:12;;;;;;;;;;;41.20;26.10;;;;;;5075290;28;19949;-96